Main page
METAR-TAF:

METAR-TAF

Airports :

Albano Machado Airport

Huambo, Angola

latitude: 12-48-32S, longitude: 015-45-38E, elevation: 1710 m

Current weather observation

The report was made 1 hour and 40 minutes ago, at 07:00 UTC
Wind 4 kt from the South
Temperature 20°C
Humidity 68%
Pressure 1024 hPa
Visibility: 6000 m
haze

METAR: FNHU 240700Z 19004KT 6000 HZ NSC 20/14 Q1024

Time: 09:40 (08:40 UTC)

Forecast

The report was made 9 hours and 40 minutes ago, at 23:00 UTC
Forecast valid from 24 at 00 UTC to 24 at 12 UTC
Wind 4 kt from the North/Northwest
Visibility 10 km or more
Few clouds at a height of 2000 ft
Probability 30% :
Temporary
from 24 at 06 UTC to 24 at 12 UTC
Wind 3 kt from variable directions

TAF: FNHU 232300Z 2400/2412 33004KT 9999 FEW020 PROB30 TEMPO 2406/2412 VRB03KT

Weather observations and forecasts of more than 4000 airports (METAR and TAF reports).

The available stations are represented by yellow and red dots on the map.

Hover mouse over dot to see the name of the station.

Then click to see weather observations and forecasts.

To change the map : click on the green buttons with a black cross to zoom in, on the green button with a dash to zoom out, or on the green arrows for adjacent maps.


METAR-TAF: